KHUL/HUL METAR and TAF weather

Enter ICAO airport designator
Station Type Date Time Source
KHUL METAR 2020/04/10 18:40 UTC NOAA

KHUL 101840Z AUTO 34015G24KT 3/4SM -SN BR BKN014 OVC020 00/M02 A2889 RMK AO2 PK WND 34027/1829 P0000 T00001022


Station Type Date Time Source
KHUL Decoded METAR 2020/04/10 18:40 UTC NOAA

HOULTON INT'L AIRPORT, ME, United States (KHUL) 46-07N 067-48W 150M
Apr 10, 2020 - 02:40 PM EDT / 2020.04.10 1840 UTC
Wind: from the NNW (340 degrees) at 17 MPH (15 KT) gusting to 28 MPH (24 KT):0
Visibility: 3/4 mile(s):0
Sky conditions: overcast
Weather: light snow; mist
Precipitation last hour: A trace
Temperature: 32.0 F (0.0 C)
Windchill: 21 F (-6 C):1
Dew Point: 28.0 F (-2.2 C)
Relative Humidity: 85%
Pressure (altimeter): 28.89 in. Hg (978 hPa)
ob: KHUL 101840Z AUTO 34015G24KT 3/4SM -SN BR BKN014 OVC020 00/M02 A2889 RMK AO2 PK WND 34027/1829 P0000 T00001022
cycle: 18

Station Type Date Time Source
KHUL TAF 2020/04/10 18:42 UTC NOAA

TAF KHUL 101739Z 1018/1118 35012G22KT 2SM -SN BR SCT006 OVC015
TEMPO 1018/1021 1SM -SN BR OVC006
FM102100 34012G22KT 5SM -SHSN OVC015
FM110000 34010G18KT P6SM VCSH OVC025 WS020/34040KT
FM110900 32010G18KT P6SM BKN035

Example: see airport list